sensor_id;sensor_type;location;lat;lon;timestamp;temperature;humidity
82836;DHT22;72587;50.746;8.246;2024-01-30T12:44:40;-0.50;99.90
82836;DHT22;72587;50.746;8.246;2024-01-30T12:47:09;8.90;99.90
82836;DHT22;72587;50.746;8.246;2024-01-30T12:49:35;8.50;99.90
82836;DHT22;72587;50.746;8.246;2024-01-30T12:52:00;8.60;99.90
82836;DHT22;72587;50.746;8.246;2024-01-30T12:54:26;8.50;99.90
82836;DHT22;72587;50.746;8.246;2024-01-30T12:56:52;8.40;99.90
82836;DHT22;72587;50.746;8.246;2024-01-30T12:59:17;8.40;99.90
82836;DHT22;72587;50.746;8.246;2024-01-30T13:01:43;8.20;99.90
82836;DHT22;72587;50.746;8.246;2024-01-30T13:04:09;8.30;99.90
82836;DHT22;72587;50.746;8.246;2024-01-30T13:06:34;8.30;99.90
82836;DHT22;72587;50.746;8.246;2024-01-30T13:09:00;8.20;99.90
82836;DHT22;72587;50.746;8.246;2024-01-30T13:11:25;8.30;99.90
82836;DHT22;72587;50.746;8.246;2024-01-30T13:13:51;8.40;99.90
82836;DHT22;72587;50.746;8.246;2024-01-30T13:16:17;8.30;99.90
82836;DHT22;72587;50.746;8.246;2024-01-30T13:18:44;8.40;99.90
82836;DHT22;72587;50.746;8.246;2024-01-30T13:21:09;8.50;99.90
82836;DHT22;72587;50.746;8.246;2024-01-30T13:23:35;8.50;99.90
82836;DHT22;72587;50.746;8.246;2024-01-30T13:26:01;8.50;99.90
82836;DHT22;72587;50.746;8.246;2024-01-30T13:28:26;8.50;99.90
82836;DHT22;72587;50.746;8.246;2024-01-30T13:30:52;8.60;99.90
82836;DHT22;72587;50.746;8.246;2024-01-30T13:33:17;8.60;99.90
82836;DHT22;72587;50.746;8.246;2024-01-30T13:35:43;8.70;99.90
82836;DHT22;72587;50.746;8.246;2024-01-30T13:38:09;8.60;99.90
82836;DHT22;72587;50.746;8.246;2024-01-30T13:40:34;8.60;99.90
82836;DHT22;72587;50.746;8.246;2024-01-30T13:43:00;8.60;99.90
82836;DHT22;72587;50.746;8.246;2024-01-30T13:45:25;8.60;99.90
82836;DHT22;72587;50.746;8.246;2024-01-30T13:47:51;8.50;99.90
82836;DHT22;72587;50.746;8.246;2024-01-30T13:50:17;8.40;99.90
82836;DHT22;72587;50.746;8.246;2024-01-30T13:52:43;8.30;99.90
82836;DHT22;72587;50.746;8.246;2024-01-30T13:55:09;8.30;99.90
82836;DHT22;72587;50.746;8.246;2024-01-30T13:57:36;8.40;99.90
82836;DHT22;72587;50.746;8.246;2024-01-30T14:00:05;8.40;99.90
82836;DHT22;72587;50.746;8.246;2024-01-30T14:02:34;8.40;99.90
82836;DHT22;72587;50.746;8.246;2024-01-30T14:05:00;8.20;99.90
82836;DHT22;72587;50.746;8.246;2024-01-30T14:07:25;8.20;99.90
82836;DHT22;72587;50.746;8.246;2024-01-30T14:09:51;8.30;99.90
82836;DHT22;72587;50.746;8.246;2024-01-30T14:12:16;8.40;99.90
82836;DHT22;72587;50.746;8.246;2024-01-30T14:14:42;8.20;99.90
82836;DHT22;72587;50.746;8.246;2024-01-30T14:17:08;8.20;99.90
82836;DHT22;72587;50.746;8.246;2024-01-30T14:19:34;8.20;99.90
82836;DHT22;72587;50.746;8.246;2024-01-30T14:22:01;8.20;99.90
82836;DHT22;72587;50.746;8.246;2024-01-30T14:24:26;8.20;99.90
82836;DHT22;72587;50.746;8.246;2024-01-30T14:26:52;8.30;99.90
82836;DHT22;72587;50.746;8.246;2024-01-30T14:29:18;8.30;99.90
82836;DHT22;72587;50.746;8.246;2024-01-30T14:31:44;8.30;99.90
82836;DHT22;72587;50.746;8.246;2024-01-30T14:34:09;8.40;99.90
82836;DHT22;72587;50.746;8.246;2024-01-30T14:36:37;8.30;99.90
82836;DHT22;72587;50.746;8.246;2024-01-30T14:39:02;8.20;99.90
82836;DHT22;72587;50.746;8.246;2024-01-30T14:41:29;8.20;99.90
82836;DHT22;72587;50.746;8.246;2024-01-30T14:43:54;8.20;99.90
82836;DHT22;72587;50.746;8.246;2024-01-30T14:46:20;8.20;99.90
82836;DHT22;72587;50.746;8.246;2024-01-30T14:48:47;8.20;99.90
82836;DHT22;72587;50.746;8.246;2024-01-30T14:51:12;8.30;99.90
82836;DHT22;72587;50.746;8.246;2024-01-30T14:53:39;8.30;99.90
82836;DHT22;72587;50.746;8.246;2024-01-30T14:56:05;8.20;99.90
82836;DHT22;72587;50.746;8.246;2024-01-30T14:58:31;8.10;99.90
82836;DHT22;72587;50.746;8.246;2024-01-30T15:00:57;8.10;99.90
82836;DHT22;72587;50.746;8.246;2024-01-30T15:03:22;8.00;99.90
82836;DHT22;72587;50.746;8.246;2024-01-30T15:05:48;8.00;99.90
82836;DHT22;72587;50.746;8.246;2024-01-30T15:08:13;8.00;99.90
82836;DHT22;72587;50.746;8.246;2024-01-30T15:10:39;8.00;99.90
82836;DHT22;72587;50.746;8.246;2024-01-30T15:13:05;8.00;99.90
82836;DHT22;72587;50.746;8.246;2024-01-30T15:15:30;8.00;99.90
82836;DHT22;72587;50.746;8.246;2024-01-30T15:17:56;8.00;99.90
82836;DHT22;72587;50.746;8.246;2024-01-30T15:20:23;7.90;99.90
82836;DHT22;72587;50.746;8.246;2024-01-30T15:22:49;7.90;99.90
82836;DHT22;72587;50.746;8.246;2024-01-30T15:25:14;7.80;99.90
82836;DHT22;72587;50.746;8.246;2024-01-30T15:27:40;7.80;99.90
82836;DHT22;72587;50.746;8.246;2024-01-30T15:30:06;7.80;99.90
82836;DHT22;72587;50.746;8.246;2024-01-30T15:32:32;7.70;99.90
82836;DHT22;72587;50.746;8.246;2024-01-30T15:34:59;7.70;99.90
82836;DHT22;72587;50.746;8.246;2024-01-30T15:37:28;7.70;99.90
82836;DHT22;72587;50.746;8.246;2024-01-30T15:39:53;7.70;99.90
82836;DHT22;72587;50.746;8.246;2024-01-30T15:42:19;7.50;99.90
82836;DHT22;72587;50.746;8.246;2024-01-30T15:44:45;7.40;99.90
82836;DHT22;72587;50.746;8.246;2024-01-30T15:47:10;7.40;99.90
82836;DHT22;72587;50.746;8.246;2024-01-30T15:49:36;7.30;99.90
82836;DHT22;72587;50.746;8.246;2024-01-30T15:52:01;7.30;99.90
82836;DHT22;72587;50.746;8.246;2024-01-30T15:54:27;7.30;99.90
82836;DHT22;72587;50.746;8.246;2024-01-30T15:56:52;7.20;99.90
82836;DHT22;72587;50.746;8.246;2024-01-30T15:59:18;7.10;99.90
82836;DHT22;72587;50.746;8.246;2024-01-30T16:01:44;7.00;99.90
82836;DHT22;72587;50.746;8.246;2024-01-30T16:04:14;7.00;99.90
82836;DHT22;72587;50.746;8.246;2024-01-30T16:06:40;7.00;99.90
82836;DHT22;72587;50.746;8.246;2024-01-30T16:09:07;6.90;99.90
82836;DHT22;72587;50.746;8.246;2024-01-30T16:11:33;6.80;99.90
82836;DHT22;72587;50.746;8.246;2024-01-30T16:13:58;6.80;99.90
82836;DHT22;72587;50.746;8.246;2024-01-30T16:16:24;6.60;99.90
82836;DHT22;72587;50.746;8.246;2024-01-30T16:18:50;6.60;99.90
82836;DHT22;72587;50.746;8.246;2024-01-30T16:21:15;6.40;99.90
82836;DHT22;72587;50.746;8.246;2024-01-30T16:23:41;6.40;99.90
82836;DHT22;72587;50.746;8.246;2024-01-30T16:26:07;6.40;99.90
82836;DHT22;72587;50.746;8.246;2024-01-30T16:28:32;6.30;99.90
82836;DHT22;72587;50.746;8.246;2024-01-30T16:31:02;6.30;99.90
82836;DHT22;72587;50.746;8.246;2024-01-30T16:33:29;6.30;99.90
82836;DHT22;72587;50.746;8.246;2024-01-30T16:35:54;6.20;99.90
82836;DHT22;72587;50.746;8.246;2024-01-30T16:38:20;6.30;99.90
82836;DHT22;72587;50.746;8.246;2024-01-30T16:40:45;6.30;99.90
82836;DHT22;72587;50.746;8.246;2024-01-30T16:43:12;6.10;99.90
82836;DHT22;72587;50.746;8.246;2024-01-30T16:45:37;6.00;99.90
82836;DHT22;72587;50.746;8.246;2024-01-30T16:48:03;6.00;99.90
82836;DHT22;72587;50.746;8.246;2024-01-30T16:50:29;5.90;99.90
82836;DHT22;72587;50.746;8.246;2024-01-30T16:52:55;5.80;99.90
82836;DHT22;72587;50.746;8.246;2024-01-30T16:55:20;5.70;99.90
82836;DHT22;72587;50.746;8.246;2024-01-30T16:57:47;5.60;99.90
82836;DHT22;72587;50.746;8.246;2024-01-30T17:00:13;5.60;99.90
82836;DHT22;72587;50.746;8.246;2024-01-30T17:02:40;5.60;99.90
82836;DHT22;72587;50.746;8.246;2024-01-30T17:05:06;5.60;99.90
82836;DHT22;72587;50.746;8.246;2024-01-30T17:07:32;5.50;99.90
82836;DHT22;72587;50.746;8.246;2024-01-30T17:10:01;5.60;99.90
82836;DHT22;72587;50.746;8.246;2024-01-30T17:12:27;5.60;99.90
82836;DHT22;72587;50.746;8.246;2024-01-30T17:14:53;5.60;99.90
82836;DHT22;72587;50.746;8.246;2024-01-30T17:17:19;5.60;99.90
82836;DHT22;72587;50.746;8.246;2024-01-30T17:19:45;5.60;99.90
82836;DHT22;72587;50.746;8.246;2024-01-30T17:22:11;5.50;99.90
82836;DHT22;72587;50.746;8.246;2024-01-30T17:24:37;5.60;99.90
82836;DHT22;72587;50.746;8.246;2024-01-30T17:27:02;5.60;99.90
82836;DHT22;72587;50.746;8.246;2024-01-30T17:29:28;5.50;99.90
82836;DHT22;72587;50.746;8.246;2024-01-30T17:31:54;5.60;99.90
82836;DHT22;72587;50.746;8.246;2024-01-30T17:34:19;5.50;99.90
82836;DHT22;72587;50.746;8.246;2024-01-30T17:36:45;5.50;99.90
82836;DHT22;72587;50.746;8.246;2024-01-30T17:39:10;5.50;99.90
82836;DHT22;72587;50.746;8.246;2024-01-30T17:41:36;5.50;99.90
82836;DHT22;72587;50.746;8.246;2024-01-30T17:44:02;5.50;99.90
82836;DHT22;72587;50.746;8.246;2024-01-30T17:46:28;5.50;99.90
82836;DHT22;72587;50.746;8.246;2024-01-30T17:48:54;5.50;99.90
82836;DHT22;72587;50.746;8.246;2024-01-30T17:51:19;5.50;99.90
82836;DHT22;72587;50.746;8.246;2024-01-30T17:53:45;5.60;99.90
82836;DHT22;72587;50.746;8.246;2024-01-30T17:56:10;5.60;99.90
82836;DHT22;72587;50.746;8.246;2024-01-30T17:58:37;5.50;99.90
82836;DHT22;72587;50.746;8.246;2024-01-30T18:01:07;5.50;99.90
82836;DHT22;72587;50.746;8.246;2024-01-30T18:03:32;5.50;99.90
82836;DHT22;72587;50.746;8.246;2024-01-30T18:05:58;5.60;99.90
82836;DHT22;72587;50.746;8.246;2024-01-30T18:08:25;5.60;99.90
82836;DHT22;72587;50.746;8.246;2024-01-30T18:10:51;5.60;99.90
82836;DHT22;72587;50.746;8.246;2024-01-30T18:13:16;5.60;99.90
82836;DHT22;72587;50.746;8.246;2024-01-30T18:15:43;5.60;99.90
82836;DHT22;72587;50.746;8.246;2024-01-30T18:18:08;5.50;99.90
82836;DHT22;72587;50.746;8.246;2024-01-30T18:20:36;5.50;99.90
82836;DHT22;72587;50.746;8.246;2024-01-30T18:23:02;5.50;99.90
82836;DHT22;72587;50.746;8.246;2024-01-30T18:25:30;5.60;99.90
82836;DHT22;72587;50.746;8.246;2024-01-30T18:27:56;5.60;99.90
82836;DHT22;72587;50.746;8.246;2024-01-30T18:30:21;5.60;99.90
82836;DHT22;72587;50.746;8.246;2024-01-30T18:32:47;5.60;99.90
82836;DHT22;72587;50.746;8.246;2024-01-30T18:35:14;5.60;99.90
82836;DHT22;72587;50.746;8.246;2024-01-30T18:37:40;5.60;99.90
82836;DHT22;72587;50.746;8.246;2024-01-30T18:40:06;5.60;99.90
82836;DHT22;72587;50.746;8.246;2024-01-30T18:42:31;5.60;99.90
82836;DHT22;72587;50.746;8.246;2024-01-30T18:44:57;5.50;99.90
82836;DHT22;72587;50.746;8.246;2024-01-30T18:47:23;5.60;99.90
82836;DHT22;72587;50.746;8.246;2024-01-30T18:49:49;5.60;99.90
82836;DHT22;72587;50.746;8.246;2024-01-30T18:52:17;5.60;99.90
82836;DHT22;72587;50.746;8.246;2024-01-30T18:54:42;5.60;99.90
82836;DHT22;72587;50.746;8.246;2024-01-30T18:57:08;5.60;99.90
82836;DHT22;72587;50.746;8.246;2024-01-30T18:59:33;5.60;99.90
82836;DHT22;72587;50.746;8.246;2024-01-30T19:01:59;5.70;99.90
82836;DHT22;72587;50.746;8.246;2024-01-30T19:04:25;5.60;99.90
82836;DHT22;72587;50.746;8.246;2024-01-30T19:06:50;5.60;99.90
82836;DHT22;72587;50.746;8.246;2024-01-30T19:09:17;5.60;99.90
82836;DHT22;72587;50.746;8.246;2024-01-30T19:11:44;5.50;99.90
82836;DHT22;72587;50.746;8.246;2024-01-30T19:14:09;5.60;99.90
82836;DHT22;72587;50.746;8.246;2024-01-30T19:16:35;5.60;99.90
82836;DHT22;72587;50.746;8.246;2024-01-30T19:19:01;5.60;99.90
82836;DHT22;72587;50.746;8.246;2024-01-30T19:21:34;5.60;99.90
82836;DHT22;72587;50.746;8.246;2024-01-30T19:24:02;5.60;99.90
82836;DHT22;72587;50.746;8.246;2024-01-30T19:26:28;5.60;99.90
82836;DHT22;72587;50.746;8.246;2024-01-30T19:28:53;5.60;99.90
82836;DHT22;72587;50.746;8.246;2024-01-30T19:31:19;5.70;99.90
82836;DHT22;72587;50.746;8.246;2024-01-30T19:33:45;5.60;99.90
82836;DHT22;72587;50.746;8.246;2024-01-30T19:36:10;5.50;99.90
82836;DHT22;72587;50.746;8.246;2024-01-30T19:38:36;5.60;99.90
82836;DHT22;72587;50.746;8.246;2024-01-30T19:41:02;5.70;99.90
82836;DHT22;72587;50.746;8.246;2024-01-30T19:43:27;5.70;99.90
82836;DHT22;72587;50.746;8.246;2024-01-30T19:45:53;5.60;99.90
82836;DHT22;72587;50.746;8.246;2024-01-30T19:48:19;5.50;99.90
82836;DHT22;72587;50.746;8.246;2024-01-30T19:50:45;5.60;99.90
82836;DHT22;72587;50.746;8.246;2024-01-30T19:53:10;5.70;99.90
82836;DHT22;72587;50.746;8.246;2024-01-30T19:55:36;5.80;99.90
82836;DHT22;72587;50.746;8.246;2024-01-30T19:58:02;6.20;99.90
82836;DHT22;72587;50.746;8.246;2024-01-30T20:00:29;6.60;99.90
82836;DHT22;72587;50.746;8.246;2024-01-30T20:02:55;6.70;99.90
82836;DHT22;72587;50.746;8.246;2024-01-30T20:05:20;6.80;99.90
82836;DHT22;72587;50.746;8.246;2024-01-30T20:07:46;6.90;99.90
82836;DHT22;72587;50.746;8.246;2024-01-30T20:10:12;6.90;99.90
82836;DHT22;72587;50.746;8.246;2024-01-30T20:12:38;7.00;99.90
82836;DHT22;72587;50.746;8.246;2024-01-30T20:15:04;7.00;99.90
82836;DHT22;72587;50.746;8.246;2024-01-30T20:17:30;7.10;99.90
82836;DHT22;72587;50.746;8.246;2024-01-30T20:19:57;7.20;99.90
82836;DHT22;72587;50.746;8.246;2024-01-30T20:22:23;7.30;99.90
82836;DHT22;72587;50.746;8.246;2024-01-30T20:24:49;7.20;99.90
82836;DHT22;72587;50.746;8.246;2024-01-30T20:27:14;7.30;99.90
82836;DHT22;72587;50.746;8.246;2024-01-30T20:29:40;7.40;99.90
82836;DHT22;72587;50.746;8.246;2024-01-30T20:32:06;7.30;99.90
82836;DHT22;72587;50.746;8.246;2024-01-30T20:34:31;7.30;99.90
82836;DHT22;72587;50.746;8.246;2024-01-30T20:36:57;7.30;99.90
82836;DHT22;72587;50.746;8.246;2024-01-30T20:39:22;7.40;99.90
82836;DHT22;72587;50.746;8.246;2024-01-30T20:41:48;7.30;99.90
82836;DHT22;72587;50.746;8.246;2024-01-30T20:44:14;7.40;99.90
82836;DHT22;72587;50.746;8.246;2024-01-30T20:46:41;7.40;99.90
82836;DHT22;72587;50.746;8.246;2024-01-30T20:49:10;7.40;99.90
82836;DHT22;72587;50.746;8.246;2024-01-30T20:51:36;7.40;99.90
82836;DHT22;72587;50.746;8.246;2024-01-30T20:54:01;7.40;99.90
82836;DHT22;72587;50.746;8.246;2024-01-30T20:56:27;7.40;99.90
82836;DHT22;72587;50.746;8.246;2024-01-30T20:58:53;7.40;99.90
82836;DHT22;72587;50.746;8.246;2024-01-30T21:01:19;7.40;99.90
82836;DHT22;72587;50.746;8.246;2024-01-30T21:03:44;7.40;99.90
82836;DHT22;72587;50.746;8.246;2024-01-30T21:06:12;7.40;99.90
82836;DHT22;72587;50.746;8.246;2024-01-30T21:08:39;7.40;99.90
82836;DHT22;72587;50.746;8.246;2024-01-30T21:11:07;7.40;99.90
82836;DHT22;72587;50.746;8.246;2024-01-30T21:13:34;7.50;99.90
82836;DHT22;72587;50.746;8.246;2024-01-30T21:15:59;7.50;99.90
82836;DHT22;72587;50.746;8.246;2024-01-30T21:18:25;7.50;99.90
82836;DHT22;72587;50.746;8.246;2024-01-30T21:20:50;7.60;99.90
82836;DHT22;72587;50.746;8.246;2024-01-30T21:23:18;7.60;99.90
82836;DHT22;72587;50.746;8.246;2024-01-30T21:25:44;7.60;99.90
82836;DHT22;72587;50.746;8.246;2024-01-30T21:28:09;7.60;99.90
82836;DHT22;72587;50.746;8.246;2024-01-30T21:30:37;7.60;99.90
82836;DHT22;72587;50.746;8.246;2024-01-30T21:33:02;7.60;99.90
82836;DHT22;72587;50.746;8.246;2024-01-30T21:35:28;7.60;99.90
82836;DHT22;72587;50.746;8.246;2024-01-30T21:37:54;7.60;99.90
82836;DHT22;72587;50.746;8.246;2024-01-30T21:40:19;7.70;99.90
82836;DHT22;72587;50.746;8.246;2024-01-30T21:42:45;7.60;99.90
82836;DHT22;72587;50.746;8.246;2024-01-30T21:45:12;7.70;99.90
82836;DHT22;72587;50.746;8.246;2024-01-30T21:47:37;7.70;99.90
82836;DHT22;72587;50.746;8.246;2024-01-30T21:50:04;7.70;99.90
82836;DHT22;72587;50.746;8.246;2024-01-30T21:52:30;7.70;99.90
82836;DHT22;72587;50.746;8.246;2024-01-30T21:54:55;7.60;99.90
82836;DHT22;72587;50.746;8.246;2024-01-30T21:57:21;7.70;99.90
82836;DHT22;72587;50.746;8.246;2024-01-30T21:59:46;7.60;99.90
82836;DHT22;72587;50.746;8.246;2024-01-30T22:02:12;7.50;99.90
82836;DHT22;72587;50.746;8.246;2024-01-30T22:04:38;7.50;99.90
82836;DHT22;72587;50.746;8.246;2024-01-30T22:07:03;7.50;99.90
82836;DHT22;72587;50.746;8.246;2024-01-30T22:09:29;7.50;99.90
82836;DHT22;72587;50.746;8.246;2024-01-30T22:11:54;7.50;99.90
82836;DHT22;72587;50.746;8.246;2024-01-30T22:14:20;7.50;99.90
82836;DHT22;72587;50.746;8.246;2024-01-30T22:16:46;7.50;99.90
82836;DHT22;72587;50.746;8.246;2024-01-30T22:19:11;7.50;99.90
82836;DHT22;72587;50.746;8.246;2024-01-30T22:21:39;7.50;99.90
82836;DHT22;72587;50.746;8.246;2024-01-30T22:24:05;7.50;99.90
82836;DHT22;72587;50.746;8.246;2024-01-30T22:26:38;7.30;99.90
82836;DHT22;72587;50.746;8.246;2024-01-30T22:29:04;7.30;99.90
82836;DHT22;72587;50.746;8.246;2024-01-30T22:31:30;7.10;99.90
82836;DHT22;72587;50.746;8.246;2024-01-30T22:33:55;6.90;99.90
82836;DHT22;72587;50.746;8.246;2024-01-30T22:36:21;6.90;99.90
82836;DHT22;72587;50.746;8.246;2024-01-30T22:38:46;6.60;99.90
82836;DHT22;72587;50.746;8.246;2024-01-30T22:41:12;6.60;99.90
82836;DHT22;72587;50.746;8.246;2024-01-30T22:43:37;6.40;99.90
82836;DHT22;72587;50.746;8.246;2024-01-30T22:46:03;6.30;99.90
82836;DHT22;72587;50.746;8.246;2024-01-30T22:48:28;6.30;99.90
82836;DHT22;72587;50.746;8.246;2024-01-30T22:50:54;6.20;99.90
82836;DHT22;72587;50.746;8.246;2024-01-30T22:53:20;6.10;99.90
82836;DHT22;72587;50.746;8.246;2024-01-30T22:55:45;6.00;99.90
82836;DHT22;72587;50.746;8.246;2024-01-30T22:58:11;5.90;99.90
82836;DHT22;72587;50.746;8.246;2024-01-30T23:00:36;5.90;99.90
82836;DHT22;72587;50.746;8.246;2024-01-30T23:03:02;5.90;99.90
82836;DHT22;72587;50.746;8.246;2024-01-30T23:05:27;5.80;99.90
82836;DHT22;72587;50.746;8.246;2024-01-30T23:07:55;5.70;99.90
82836;DHT22;72587;50.746;8.246;2024-01-30T23:10:21;5.60;99.90
82836;DHT22;72587;50.746;8.246;2024-01-30T23:12:47;5.50;99.90
82836;DHT22;72587;50.746;8.246;2024-01-30T23:15:12;5.40;99.90
82836;DHT22;72587;50.746;8.246;2024-01-30T23:17:38;5.40;99.90
82836;DHT22;72587;50.746;8.246;2024-01-30T23:20:04;5.30;99.90
82836;DHT22;72587;50.746;8.246;2024-01-30T23:22:37;5.20;99.90
82836;DHT22;72587;50.746;8.246;2024-01-30T23:25:04;5.10;99.90
82836;DHT22;72587;50.746;8.246;2024-01-30T23:27:29;5.10;99.90
82836;DHT22;72587;50.746;8.246;2024-01-30T23:29:55;5.10;99.90
82836;DHT22;72587;50.746;8.246;2024-01-30T23:32:20;4.90;99.90
82836;DHT22;72587;50.746;8.246;2024-01-30T23:34:46;4.70;99.90
82836;DHT22;72587;50.746;8.246;2024-01-30T23:37:12;4.60;99.90
82836;DHT22;72587;50.746;8.246;2024-01-30T23:39:38;4.60;99.90
82836;DHT22;72587;50.746;8.246;2024-01-30T23:42:04;4.40;99.90
82836;DHT22;72587;50.746;8.246;2024-01-30T23:44:29;4.40;99.90
82836;DHT22;72587;50.746;8.246;2024-01-30T23:46:55;4.40;99.90
82836;DHT22;72587;50.746;8.246;2024-01-30T23:49:20;4.30;99.90
82836;DHT22;72587;50.746;8.246;2024-01-30T23:51:47;4.20;99.90
82836;DHT22;72587;50.746;8.246;2024-01-30T23:54:12;4.10;99.90
82836;DHT22;72587;50.746;8.246;2024-01-30T23:56:42;4.00;99.90
82836;DHT22;72587;50.746;8.246;2024-01-30T23:59:10;4.00;99.90
